Sturgis, Michigan
Current Conditions -  °F | °C
As of 9:35 AM on Sunday 25 Jan 2015 (Local Time) from KIRS Reporting Station
Light Snow Light Snow  
Wind Chill: 20°   Ceiling: 1000
Heat Index: 30°   Visibility: 2.5mi
Dew Point: 30°   Wind: 13mph
Humidity: 100%   Direction: 50°NE
Pressure: 29.76"   Gusts: NA
Location:  41.8°N, 85.42°W
Report Text: KIRS 251435Z AUTO 05011KT 2 1/2SM -SN OVC010 M01/M01 A2976 RMK AO2
Loading
Personal Weather Stations






























Interactive Weather Map New forecast layout! Learn more

10-Day Weather Forecast

Advertisements
Track Severe Weather on mobile